Time;durP1;ratioP1;P1;durP2;ratioP2;P2;SDS_P1;SDS_P2;PMS_P1;PMS_P2;Temp;Humidity;BMP_temperature;BMP_pressure;BME280_temperature;BME280_humidity;BME280_pressure;Samples;Min_cycle;Max_cycle;Signal;HPM_P1;HPM_P2
2021/09/03 00:00:19;;;;;;;22.05;11.45;;;12.30;99.90;;;13.51;100.00;101280.38;6128496;23;20123;-90
2021/09/03 00:02:47;;;;;;;15.73;11.50;;;12.20;99.90;;;13.33;100.00;101270.66;6102745;23;20628;-91
2021/09/03 00:05:21;;;;;;;18.95;12.63;;;12.10;99.90;;;13.23;100.00;101268.44;6102088;23;20052;-91
2021/09/03 00:07:49;;;;;;;26.92;16.15;;;12.00;99.90;;;13.38;100.00;101273.22;6102098;23;20017;-90
2021/09/03 00:10:20;;;;;;;21.00;14.10;;;12.10;99.90;;;13.46;100.00;101263.78;6101439;23;20394;-91
2021/09/03 00:12:51;;;;;;;18.25;11.73;;;12.10;99.90;;;13.34;100.00;101267.53;6126700;23;20124;-90
2021/09/03 00:15:34;;;;;;;23.77;13.38;;;12.10;99.90;;;13.24;100.00;101264.44;6102906;23;20512;-91
2021/09/03 00:18:02;;;;;;;20.08;12.10;;;12.00;99.90;;;13.13;100.00;101264.97;6125959;23;20010;-89
2021/09/03 00:20:30;;;;;;;16.45;12.27;;;12.00;99.90;;;13.10;100.00;101260.06;6130269;23;20026;-89
2021/09/03 00:22:58;;;;;;;21.38;14.48;;;11.90;99.90;;;13.04;100.00;101260.66;6103064;23;20077;-89
2021/09/03 00:25:25;;;;;;;18.52;12.52;;;11.80;99.90;;;13.01;100.00;101267.00;6128460;23;20010;-91
2021/09/03 00:27:52;;;;;;;24.65;15.90;;;11.80;99.90;;;13.02;100.00;101260.22;6121452;23;20032;-90
2021/09/03 00:30:18;;;;;;;22.80;15.80;;;11.90;99.90;;;13.06;100.00;101255.53;6133741;23;20009;-92
2021/09/03 00:32:44;;;;;;;23.50;15.75;;;11.80;99.90;;;13.16;100.00;101261.44;6159844;23;20005;-90
2021/09/03 00:35:10;;;;;;;20.15;13.93;;;12.00;99.90;;;13.15;100.00;101257.03;6161835;23;20008;-90
2021/09/03 00:37:37;;;;;;;23.50;15.52;;;11.90;99.90;;;13.14;100.00;101251.75;6139412;23;20037;-92
2021/09/03 00:40:09;;;;;;;28.00;17.05;;;11.90;99.90;;;13.20;100.00;101251.13;6137340;23;20037;-91
2021/09/03 00:42:35;;;;;;;19.58;13.88;;;12.00;99.90;;;13.15;100.00;101250.59;6136032;23;20536;-92
2021/09/03 00:45:03;;;;;;;19.58;12.70;;;12.00;99.90;;;13.03;100.00;101256.25;6136033;23;20005;-90
2021/09/03 00:47:28;;;;;;;16.27;11.60;;;11.80;99.90;;;12.94;100.00;101250.00;6139942;23;20061;-90
2021/09/03 00:49:57;;;;;;;17.15;12.82;;;11.70;99.90;;;12.90;100.00;101255.50;6145433;23;20068;-89
2021/09/03 00:52:32;;;;;;;17.92;12.18;;;11.70;99.90;;;12.79;100.00;101243.19;6159379;23;20006;-90
2021/09/03 00:54:59;;;;;;;20.45;13.25;;;11.60;99.90;;;12.80;100.00;101244.00;6160790;23;20072;-89
2021/09/03 00:57:26;;;;;;;21.23;14.35;;;11.60;99.90;;;12.80;100.00;101244.81;6134377;23;20013;-92
2021/09/03 00:59:54;;;;;;;17.55;12.57;;;11.60;99.90;;;12.77;100.00;101248.34;6162754;23;20010;-92
2021/09/03 01:02:37;;;;;;;16.63;11.88;;;11.60;99.90;;;12.72;100.00;101244.97;6135436;23;20072;-91
2021/09/03 01:05:03;;;;;;;16.98;11.77;;;11.50;99.90;;;12.63;100.00;101248.75;6136802;23;20313;-92
2021/09/03 01:07:30;;;;;;;18.35;13.38;;;11.40;99.90;;;12.59;100.00;101238.59;6133583;23;20108;-91
2021/09/03 01:09:56;;;;;;;20.92;12.35;;;11.40;99.90;;;12.56;100.00;101233.72;6136276;23;20010;-90
2021/09/03 01:12:22;;;;;;;17.85;12.27;;;11.40;99.90;;;12.52;100.00;101239.22;6133054;23;20008;-92
2021/09/03 01:14:48;;;;;;;20.90;13.57;;;11.30;99.90;;;12.46;100.00;101239.81;6135240;23;20006;-92
2021/09/03 01:17:14;;;;;;;20.83;12.15;;;11.30;99.90;;;12.46;100.00;101237.84;6135562;23;20013;-93
2021/09/03 01:19:40;;;;;;;17.98;12.82;;;11.30;99.90;;;12.42;100.00;101238.94;6137965;23;20092;-92
2021/09/03 01:22:06;;;;;;;18.98;13.65;;;11.30;99.90;;;12.37;100.00;101234.38;6138850;23;20021;-91
2021/09/03 01:24:33;;;;;;;18.95;12.02;;;11.20;99.90;;;12.38;100.00;101238.81;6139269;23;20017;-91
2021/09/03 01:26:59;;;;;;;18.17;13.32;;;11.20;99.90;;;12.38;100.00;101235.22;6140541;23;20017;-93
2021/09/03 01:29:25;;;;;;;17.88;12.68;;;11.20;99.90;;;12.38;100.00;101240.81;6136926;23;20010;-91
2021/09/03 01:31:52;;;;;;;22.40;14.45;;;11.30;99.90;;;12.39;100.00;101237.66;6135021;23;20013;-91
2021/09/03 01:34:21;;;;;;;19.38;13.93;;;11.20;99.90;;;12.36;100.00;101235.56;6167460;23;20012;-92
2021/09/03 01:36:48;;;;;;;22.52;15.13;;;11.30;99.90;;;12.38;100.00;101235.22;6138623;23;20230;-91
2021/09/03 01:39:16;;;;;;;22.35;15.10;;;11.20;99.90;;;12.43;100.00;101232.13;6139550;23;20340;-92
2021/09/03 01:41:42;;;;;;;25.77;15.15;;;11.30;99.90;;;12.44;100.00;101231.78;6137573;23;20005;-91
2021/09/03 01:44:10;;;;;;;21.73;13.90;;;11.30;99.90;;;12.44;100.00;101226.19;6138167;23;20014;-92
2021/09/03 01:46:37;;;;;;;21.15;13.70;;;11.30;99.90;;;12.38;100.00;101224.81;6141331;23;20005;-91
2021/09/03 01:49:03;;;;;;;25.55;16.63;;;11.20;99.90;;;12.44;100.00;101214.16;6146765;23;20009;-91
2021/09/03 01:51:29;;;;;;;18.67;13.43;;;11.30;99.90;;;12.45;100.00;101215.81;6137163;23;20077;-91
2021/09/03 01:53:55;;;;;;;18.98;12.60;;;11.20;99.90;;;12.35;100.00;101219.94;6164655;23;20068;-92
2021/09/03 01:56:21;;;;;;;18.08;12.27;;;11.20;99.90;;;12.25;100.00;101209.22;6161644;23;20005;-90
2021/09/03 01:58:47;;;;;;;21.50;14.15;;;11.10;99.90;;;12.23;100.00;101211.59;6138530;23;20052;-93
2021/09/03 02:01:13;;;;;;;18.60;13.05;;;11.10;99.90;;;12.23;100.00;101210.75;6141580;23;20060;-92
2021/09/03 02:03:39;;;;;;;21.40;13.45;;;11.00;99.90;;;12.18;100.00;101211.81;6140923;23;20025;-93
2021/09/03 02:06:05;;;;;;;17.33;11.82;;;11.00;99.90;;;12.13;100.00;101212.09;6151207;23;20013;-91
2021/09/03 02:08:31;;;;;;;15.48;11.95;;;11.00;99.90;;;12.02;100.00;101210.94;6153270;23;20089;-92
2021/09/03 02:10:57;;;;;;;23.33;14.30;;;10.90;99.90;;;12.06;100.00;101211.88;6178556;23;20022;-91
2021/09/03 02:13:23;;;;;;;23.88;14.90;;;10.90;99.90;;;12.14;100.00;101200.50;6143262;23;20006;-92
2021/09/03 02:15:50;;;;;;;22.42;14.45;;;11.00;99.90;;;12.17;100.00;101209.38;6141406;23;20097;-91
2021/09/03 02:18:16;;;;;;;18.40;12.52;;;11.00;99.90;;;12.15;100.00;101210.56;6171871;23;19990;-93
2021/09/03 02:20:43;;;;;;;20.77;14.05;;;11.00;99.90;;;12.10;100.00;101205.19;6146036;23;20024;-91
2021/09/03 02:23:09;;;;;;;17.98;13.40;;;10.90;99.90;;;12.04;100.00;101197.41;6171722;23;20104;-91
2021/09/03 02:25:35;;;;;;;21.15;13.05;;;10.90;99.90;;;11.97;100.00;101197.19;6143287;23;20028;-91
2021/09/03 02:28:01;;;;;;;20.00;13.80;;;10.90;99.90;;;11.94;100.00;101200.72;6159950;23;20014;-92
2021/09/03 02:30:27;;;;;;;18.77;12.95;;;10.80;99.90;;;11.94;100.00;101197.91;6141513;23;20016;-91
2021/09/03 02:32:53;;;;;;;16.40;11.90;;;10.80;99.90;;;11.88;100.00;101200.13;6145084;23;20035;-91
2021/09/03 02:35:19;;;;;;;21.15;13.43;;;10.70;99.90;;;11.82;100.00;101203.50;6147422;23;20628;-91
2021/09/03 02:37:49;;;;;;;24.08;13.95;;;10.70;99.90;;;11.81;100.00;101196.31;6141243;23;20025;-92
2021/09/03 02:40:15;;;;;;;22.00;14.40;;;10.70;99.90;;;11.80;100.00;101195.47;6139746;23;20021;-93
2021/09/03 02:42:43;;;;;;;20.48;13.98;;;10.60;99.90;;;11.82;100.00;101192.31;6144662;23;20036;-92
2021/09/03 02:45:09;;;;;;;20.65;14.82;;;10.70;99.90;;;11.85;100.00;101186.84;6173046;23;20095;-92
2021/09/03 02:47:35;;;;;;;23.70;14.63;;;10.70;99.90;;;11.85;100.00;101188.81;6167874;23;20009;-92
2021/09/03 02:50:04;;;;;;;22.50;13.60;;;10.70;99.90;;;11.85;100.00;101200.00;6173073;23;20018;-90
2021/09/03 02:52:35;;;;;;;20.73;13.48;;;10.70;99.90;;;11.74;100.00;101184.88;6148348;23;19997;-90
2021/09/03 02:55:03;;;;;;;20.25;13.70;;;10.60;99.90;;;11.71;100.00;101186.41;6147250;23;20020;-90
2021/09/03 02:57:29;;;;;;;16.77;12.38;;;10.50;99.90;;;11.69;100.00;101185.91;6150094;23;20029;-92
2021/09/03 02:59:55;;;;;;;17.80;11.73;;;10.50;99.90;;;11.65;100.00;101182.19;6148099;23;20013;-91
2021/09/03 03:02:21;;;;;;;19.02;13.32;;;10.50;99.90;;;11.65;100.00;101173.81;6148076;23;20008;-92
2021/09/03 03:04:47;;;;;;;21.27;13.93;;;10.50;99.90;;;11.64;100.00;101177.75;6152534;23;20033;-89
2021/09/03 03:07:13;;;;;;;23.33;14.45;;;10.50;99.90;;;11.70;100.00;101169.94;6150758;23;20705;-93
2021/09/03 03:09:40;;;;;;;22.10;13.80;;;10.50;99.90;;;11.69;100.00;101157.91;6155758;23;20016;-93
2021/09/03 03:12:10;;;;;;;21.60;13.55;;;10.50;99.90;;;11.74;100.00;101165.31;6180619;23;20005;-91
2021/09/03 03:14:37;;;;;;;21.92;14.68;;;10.60;99.90;;;11.75;100.00;101162.13;6156127;23;20017;-90
2021/09/03 03:17:04;;;;;;;21.77;13.98;;;10.60;99.90;;;11.77;100.00;101154.22;6179419;23;20072;-91
2021/09/03 03:19:31;;;;;;;21.63;14.15;;;10.60;99.90;;;11.74;100.00;101162.50;6156655;23;20025;-91
2021/09/03 03:21:57;;;;;;;20.73;14.10;;;10.70;99.90;;;11.73;100.00;101163.66;6156098;23;20005;-92
2021/09/03 03:24:26;;;;;;;19.95;13.52;;;10.50;99.90;;;11.74;100.00;101162.50;6155335;23;20017;-91
2021/09/03 03:26:56;;;;;;;23.77;14.50;;;10.60;99.90;;;11.71;100.00;101161.22;6155050;23;20165;-92
2021/09/03 03:29:24;;;;;;;25.38;15.52;;;10.50;99.90;;;11.72;100.00;101156.44;6156140;23;20015;-91
2021/09/03 03:31:49;;;;;;;21.10;15.15;;;10.50;99.90;;;11.75;100.00;101144.56;6181206;23;20002;-91
2021/09/03 03:34:15;;;;;;;22.83;13.55;;;10.60;99.90;;;11.74;100.00;101146.53;6156535;23;20029;-91
2021/09/03 03:36:41;;;;;;;18.50;13.20;;;10.50;99.90;;;11.66;100.00;101155.81;6156541;23;20040;-91
2021/09/03 03:39:08;;;;;;;22.15;13.63;;;10.50;99.90;;;11.58;100.00;101145.59;6156542;23;20013;-91
2021/09/03 03:41:35;;;;;;;19.95;13.63;;;10.50;99.90;;;11.59;100.00;101150.84;6180121;23;20009;-91
2021/09/03 03:44:01;;;;;;;18.92;12.82;;;10.40;99.90;;;11.52;100.00;101147.00;6156181;23;19997;-92
2021/09/03 03:46:27;;;;;;;19.63;13.05;;;10.40;99.90;;;11.49;100.00;101136.53;6156451;23;20016;-90
2021/09/03 03:48:53;;;;;;;17.85;12.20;;;10.40;99.90;;;11.47;100.00;101150.03;6180890;23;20001;-91
2021/09/03 03:51:20;;;;;;;19.45;14.05;;;10.30;99.90;;;11.45;100.00;101144.81;6156193;23;20012;-90
2021/09/03 03:53:46;;;;;;;19.77;13.80;;;10.30;99.90;;;11.47;100.00;101141.66;6154815;23;20012;-92
2021/09/03 03:56:12;;;;;;;18.88;13.63;;;10.30;99.90;;;11.49;100.00;101142.91;6155130;23;20021;-90
2021/09/03 03:58:38;;;;;;;21.30;13.30;;;10.30;99.90;;;11.46;100.00;101143.63;6154559;23;20040;-90
2021/09/03 04:01:04;;;;;;;20.38;12.95;;;10.30;99.90;;;11.48;100.00;101143.28;6153962;23;20033;-91
2021/09/03 04:03:31;;;;;;;20.80;14.25;;;10.30;99.90;;;11.44;100.00;101140.38;6151371;23;20010;-91
2021/09/03 04:05:57;;;;;;;25.65;14.80;;;10.30;99.90;;;11.45;100.00;101130.81;6176080;23;20010;-92
2021/09/03 04:08:25;;;;;;;26.23;14.75;;;10.20;99.90;;;11.41;100.00;101138.28;6154980;23;20013;-91
2021/09/03 04:10:51;;;;;;;21.77;13.57;;;10.30;99.90;;;11.45;100.00;101133.63;6153138;23;20013;-91
2021/09/03 04:13:16;;;;;;;23.08;14.00;;;10.30;99.90;;;11.48;100.00;101140.50;6143726;23;20045;-91
2021/09/03 04:15:42;;;;;;;21.60;13.85;;;10.30;99.90;;;11.47;100.00;101134.06;6132253;23;20013;-91
2021/09/03 04:18:08;;;;;;;21.83;13.77;;;10.30;99.90;;;11.43;100.00;101133.16;6131121;23;20024;-92
2021/09/03 04:20:34;;;;;;;20.48;13.43;;;10.20;99.90;;;11.42;100.00;101131.53;6132204;23;20363;-93
2021/09/03 04:23:01;;;;;;;20.83;13.50;;;10.20;99.90;;;11.39;100.00;101125.81;6132705;23;20033;-92
2021/09/03 04:25:27;;;;;;;22.25;13.95;;;10.20;99.90;;;11.33;100.00;101135.63;6157389;23;20010;-90
2021/09/03 04:27:53;;;;;;;20.88;12.85;;;10.20;99.90;;;11.29;100.00;101126.31;6158611;23;20093;-92
2021/09/03 04:30:19;;;;;;;22.05;13.40;;;10.10;99.90;;;11.26;100.00;101124.22;6135969;23;20343;-91
2021/09/03 04:32:47;;;;;;;18.17;12.73;;;10.10;99.90;;;11.30;100.00;101127.94;6160519;23;20005;-91
2021/09/03 04:35:13;;;;;;;20.60;13.93;;;10.10;99.90;;;11.32;100.00;101125.59;6134153;23;20017;-91
2021/09/03 04:37:48;;;;;;;20.33;13.38;;;10.20;99.90;;;11.33;100.00;101124.44;6136856;23;20420;-91
2021/09/03 04:40:18;;;;;;;;;;;10.10;99.90;;;11.34;100.00;101120.47;6136092;23;20044;-91
2021/09/03 04:42:44;;;;;;;19.35;12.05;;;10.20;99.90;;;11.33;100.00;101125.25;6158120;23;19912;-91
2021/09/03 04:45:13;;;;;;;18.42;12.07;;;10.10;99.90;;;11.26;100.00;101127.81;6133178;23;20010;-92
2021/09/03 04:47:40;;;;;;;25.02;13.82;;;10.10;99.90;;;11.25;100.00;101128.97;6132055;23;20017;-92
2021/09/03 04:50:10;;;;;;;18.50;12.32;;;10.10;99.90;;;11.25;100.00;101128.16;6132137;23;20025;-91
2021/09/03 04:52:36;;;;;;;18.10;12.88;;;10.10;99.90;;;11.22;100.00;101132.47;6132413;23;20010;-91
2021/09/03 04:55:04;;;;;;;19.45;13.00;;;10.00;99.90;;;11.22;100.00;101126.06;6156912;23;20007;-90
2021/09/03 04:57:37;;;;;;;24.13;13.68;;;10.10;99.90;;;11.25;100.00;101137.38;6156560;23;20009;-92
2021/09/03 05:00:04;;;;;;;18.50;13.57;;;10.10;99.90;;;11.26;100.00;101127.00;6132624;23;20017;-89
2021/09/03 05:02:30;;;;;;;25.95;15.30;;;10.10;99.90;;;11.30;100.00;101128.72;6155773;23;20033;-92
2021/09/03 05:04:56;;;;;;;25.73;14.88;;;10.10;99.90;;;11.39;100.00;101125.81;6157510;23;20013;-91
2021/09/03 05:07:22;;;;;;;24.05;15.23;;;10.20;99.90;;;11.39;100.00;101120.22;6133504;23;20063;-93
2021/09/03 05:09:49;;;;;;;23.02;15.00;;;10.20;99.90;;;11.46;100.00;101117.66;6133641;23;20415;-91
2021/09/03 05:12:14;;;;;;;21.60;14.23;;;10.20;99.90;;;11.49;100.00;101114.94;6133384;23;20010;-92
2021/09/03 05:14:40;;;;;;;24.52;14.95;;;10.30;99.90;;;11.53;100.00;101120.66;6132928;23;20029;-93
2021/09/03 05:17:06;;;;;;;20.30;14.10;;;10.30;99.90;;;11.55;100.00;101116.34;6158127;23;20436;-92
2021/09/03 05:19:32;;;;;;;20.55;13.68;;;10.30;99.90;;;11.60;100.00;101124.50;6133362;23;20028;-92
2021/09/03 05:21:58;;;;;;;20.73;14.18;;;10.30;99.90;;;11.59;100.00;101119.28;6133578;23;20017;-91
2021/09/03 05:24:24;;;;;;;17.80;13.20;;;10.40;99.90;;;11.59;100.00;101111.66;6158367;23;20432;-92
2021/09/03 05:26:50;;;;;;;21.42;13.25;;;10.40;99.90;;;11.59;100.00;101119.28;6158293;23;20009;-92
2021/09/03 05:29:17;;;;;;;22.88;13.13;;;10.40;99.90;;;11.65;100.00;101123.44;6133675;23;20017;-93
2021/09/03 05:31:43;;;;;;;28.83;14.27;;;10.40;99.90;;;11.72;100.00;101125.69;6133003;23;20017;-90
2021/09/03 05:34:08;;;;;;;26.13;15.35;;;10.50;99.90;;;11.78;100.00;101130.66;6133002;23;20006;-91
2021/09/03 05:36:35;;;;;;;24.33;14.43;;;10.50;99.90;;;11.88;100.00;101132.16;6158049;23;20013;-90
2021/09/03 05:39:00;;;;;;;20.02;14.48;;;10.60;99.90;;;11.94;100.00;101125.13;6133673;23;20096;-91
2021/09/03 05:41:26;;;;;;;22.17;13.23;;;10.70;99.90;;;12.03;100.00;101120.19;6137456;23;20467;-92
2021/09/03 05:43:53;;;;;;;17.50;12.82;;;10.80;99.90;;;12.15;100.00;101120.94;6134447;23;20017;-91
2021/09/03 05:46:19;;;;;;;21.33;14.00;;;10.80;99.90;;;12.30;100.00;101130.53;6134157;23;20009;-92
2021/09/03 05:48:46;;;;;;;28.60;16.02;;;10.90;99.90;;;12.45;100.00;101134.56;6133602;23;20010;-90
2021/09/03 05:51:12;;;;;;;26.10;15.52;;;11.10;99.90;;;12.61;100.00;101121.38;6133877;23;20013;-90
2021/09/03 05:53:39;;;;;;;24.42;16.45;;;11.30;99.90;;;12.78;100.00;101135.03;6134445;23;20085;-92
2021/09/03 05:56:06;;;;;;;23.58;14.00;;;11.40;99.90;;;13.05;100.00;101138.91;6134716;23;20010;-92
2021/09/03 05:58:35;;;;;;;17.90;13.25;;;11.50;99.90;;;13.32;100.00;101137.19;6134347;23;20439;-92
2021/09/03 06:01:02;;;;;;;17.55;12.00;;;11.70;99.90;;;13.64;100.00;101135.94;6135376;23;20036;-90
2021/09/03 06:03:28;;;;;;;21.20;12.25;;;11.90;99.90;;;13.97;100.00;101141.88;6161467;23;20017;-92
2021/09/03 06:05:53;;;;;;;16.60;12.23;;;12.10;99.90;;;14.37;100.00;101140.69;6162065;23;20013;-90
2021/09/03 06:08:19;;;;;;;18.85;11.50;;;12.40;99.90;;;14.76;100.00;101133.81;6161313;23;20096;-92
2021/09/03 06:10:47;;;;;;;17.15;9.90;;;12.70;99.90;;;15.20;100.00;101139.78;6161016;23;20061;-89
2021/09/03 06:13:13;;;;;;;17.13;10.25;;;12.90;99.90;;;15.63;100.00;101138.44;6137349;23;20008;-90
2021/09/03 06:15:41;;;;;;;14.07;10.18;;;13.20;99.90;;;15.99;100.00;101134.91;6136590;23;20006;-91
2021/09/03 06:18:07;;;;;;;14.52;10.13;;;13.50;99.90;;;16.35;100.00;101134.13;6160365;23;20021;-90
2021/09/03 06:20:34;;;;;;;15.65;10.00;;;13.80;99.90;;;16.69;100.00;101136.94;6136321;23;20101;-89
2021/09/03 06:23:01;;;;;;;14.27;10.13;;;14.20;99.90;;;16.98;99.38;101136.03;6161839;23;20075;-90
2021/09/03 06:25:28;;;;;;;15.93;10.65;;;14.50;99.90;;;17.27;97.27;101137.06;6137023;23;20408;-90
2021/09/03 06:27:53;;;;;;;12.10;9.48;;;14.80;99.90;;;17.52;95.06;101140.06;6143833;23;20070;-89
2021/09/03 06:30:22;;;;;;;15.52;9.68;;;15.00;99.90;;;17.65;92.54;101139.38;6160748;23;20005;-87
2021/09/03 06:32:48;;;;;;;15.20;10.30;;;15.40;99.90;;;17.84;90.91;101152.38;6135240;23;20005;-87
2021/09/03 06:35:17;;;;;;;18.33;10.38;;;15.60;99.90;;;17.96;89.67;101146.38;6160425;23;20072;-87
2021/09/03 06:37:43;;;;;;;14.30;9.68;;;15.90;99.90;;;18.13;89.21;101147.69;6158526;23;20012;-88
2021/09/03 06:40:09;;;;;;;19.92;10.27;;;16.10;99.90;;;18.20;88.39;101142.88;6134951;23;20009;-87
2021/09/03 06:42:35;;;;;;;14.15;10.05;;;16.20;99.90;;;18.32;88.44;101144.50;6134033;23;20017;-87
2021/09/03 06:45:01;;;;;;;17.70;11.10;;;16.30;99.90;;;18.37;87.51;101133.63;6134187;23;20010;-88
2021/09/03 06:47:28;;;;;;;17.90;11.48;;;16.40;99.90;;;18.42;88.02;101140.91;6160394;23;20448;-88
2021/09/03 06:49:54;;;;;;;17.63;10.70;;;16.50;99.90;;;18.51;87.31;101143.38;6157950;23;20072;-87
2021/09/03 06:52:28;;;;;;;20.00;11.75;;;16.50;99.90;;;18.60;86.53;101138.16;6134807;23;20435;-88
2021/09/03 06:54:59;;;;;;;22.75;12.43;;;16.70;99.90;;;18.77;86.08;101140.22;6134715;23;20009;-89
2021/09/03 06:57:25;;;;;;;23.15;12.35;;;16.80;99.90;;;18.94;84.93;101131.72;6135358;23;20016;-87
2021/09/03 06:59:56;;;;;;;21.73;11.38;;;17.00;99.90;;;19.11;84.02;101127.28;6134726;23;20064;-89
2021/09/03 07:02:22;;;;;;;15.88;11.57;;;17.10;99.90;;;19.21;83.41;101131.31;6159034;23;20036;-87
2021/09/03 07:04:48;;;;;;;21.27;11.68;;;17.30;99.90;;;19.36;83.22;101124.44;6134267;23;20040;-88
2021/09/03 07:07:15;;;;;;;19.95;11.85;;;17.40;99.90;;;19.63;83.49;101122.81;6159181;23;20028;-87
2021/09/03 07:09:46;;;;;;;23.05;10.98;;;17.70;99.90;;;19.87;81.82;101127.56;6160391;23;19997;-88
2021/09/03 07:12:12;;;;;;;20.48;11.57;;;17.90;99.90;;;20.06;81.05;101128.34;6137227;23;20005;-87
2021/09/03 07:14:38;;;;;;;17.77;10.57;;;18.10;99.90;;;20.22;79.57;101125.84;6159892;23;20009;-88
2021/09/03 07:17:06;;;;;;;21.77;11.73;;;18.30;99.90;;;20.39;77.82;101127.78;6136113;23;20324;-88
2021/09/03 07:19:34;;;;;;;17.05;10.82;;;18.40;99.90;;;20.55;77.97;101127.31;6136534;23;20014;-89
2021/09/03 07:22:02;;;;;;;15.75;10.90;;;18.60;99.90;;;20.62;77.23;101127.25;6137128;23;20017;-88
2021/09/03 07:24:29;;;;;;;15.88;11.00;;;18.70;99.90;;;20.74;76.19;101121.09;6136204;23;20006;-88
2021/09/03 07:26:55;;;;;;;20.23;11.57;;;18.80;99.90;;;20.96;75.87;101122.56;6135736;23;20015;-87
2021/09/03 07:29:21;;;;;;;14.63;10.55;;;19.00;99.90;;;21.18;74.97;101117.53;6160790;23;20018;-89
2021/09/03 07:31:47;;;;;;;17.98;11.02;;;19.20;99.90;;;21.36;74.91;101121.00;6135937;23;20012;-87
2021/09/03 07:34:13;;;;;;;16.27;10.20;;;19.40;99.90;;;21.55;73.19;101120.41;6135223;23;20006;-85
2021/09/03 07:36:39;;;;;;;17.95;10.82;;;19.60;99.90;;;21.69;73.10;101128.78;6136185;23;20010;-86
2021/09/03 07:39:05;;;;;;;15.45;11.13;;;19.70;99.90;;;21.82;71.44;101127.03;6135388;23;20013;-90
2021/09/03 07:41:31;;;;;;;17.90;10.85;;;19.90;99.90;;;22.01;71.58;101117.88;6134588;23;20013;-86
2021/09/03 07:43:57;;;;;;;16.90;9.70;;;20.00;99.90;;;22.19;72.15;101120.50;6159516;23;20068;-88
2021/09/03 07:46:23;;;;;;;18.48;11.27;;;20.20;99.90;;;22.35;69.30;101122.72;6160456;23;20010;-87
2021/09/03 07:48:50;;;;;;;13.55;8.80;;;20.40;99.90;;;22.49;69.14;101125.38;6160261;23;20014;-86
2021/09/03 07:51:16;;;;;;;18.92;9.95;;;20.50;99.90;;;22.70;69.05;101124.31;6160426;23;20005;-86
2021/09/03 07:53:44;;;;;;;13.18;8.73;;;20.70;99.90;;;22.87;69.47;101123.19;6134778;23;20035;-88
2021/09/03 07:56:11;;;;;;;19.55;10.60;;;20.80;99.90;;;22.88;66.96;101125.63;6135777;23;20010;-88
2021/09/03 07:58:36;;;;;;;17.23;9.70;;;20.90;99.90;;;23.01;65.39;101120.13;6135066;23;20016;-87
2021/09/03 08:01:04;;;;;;;13.52;8.43;;;21.00;99.90;;;23.16;65.82;101132.09;6135417;23;20006;-88
2021/09/03 08:03:30;;;;;;;19.88;9.45;;;21.10;99.90;;;23.24;64.59;101116.50;6135293;23;20071;-88
2021/09/03 08:05:56;;;;;;;14.82;8.48;;;21.20;99.90;;;23.37;64.79;101132.53;6135465;23;20010;-88
2021/09/03 08:08:22;;;;;;;14.23;8.77;;;21.40;99.90;;;23.49;65.79;101131.13;6135532;23;20029;-87
2021/09/03 08:10:48;;;;;;;14.80;8.90;;;21.50;99.90;;;23.68;64.24;101127.50;6160557;23;20001;-89
2021/09/03 08:13:15;;;;;;;15.85;8.50;;;21.70;99.90;;;23.94;62.38;101128.63;6136008;23;20394;-90
2021/09/03 08:15:41;;;;;;;14.13;8.43;;;21.80;99.90;;;24.05;62.06;101129.22;6162518;23;20016;-89
2021/09/03 08:18:08;;;;;;;13.88;8.30;;;22.10;99.90;;;24.21;61.21;101126.44;6133646;23;20013;-87
2021/09/03 08:20:35;;;;;;;15.35;9.00;;;22.20;99.90;;;24.32;60.40;101124.19;6134487;23;20114;-86
2021/09/03 08:23:03;;;;;;;15.27;8.90;;;22.30;99.90;;;24.43;60.70;101124.78;6158750;23;20380;-86
2021/09/03 08:25:29;;;;;;;13.18;7.78;;;22.40;99.90;;;24.57;60.22;101121.56;6134566;23;20021;-88
2021/09/03 08:27:55;;;;;;;15.05;9.15;;;22.50;99.90;;;24.83;59.38;101121.81;6134882;23;20107;-87
2021/09/03 08:30:22;;;;;;;12.80;7.95;;;22.60;99.90;;;24.95;58.24;101121.91;6160746;23;20014;-86
2021/09/03 08:32:48;;;;;;;12.57;7.65;;;22.80;99.90;;;25.20;58.72;101112.75;6135648;23;20017;-86
2021/09/03 08:35:15;;;;;;;13.43;7.80;;;23.00;99.90;;;25.19;57.82;101111.13;6159200;23;20041;-86
2021/09/03 08:37:42;;;;;;;12.18;8.02;;;23.10;99.90;;;25.16;57.16;101118.53;6159175;23;20093;-87
2021/09/03 08:40:12;;;;;;;12.93;8.05;;;23.10;99.90;;;25.35;57.62;101122.53;6136011;23;20020;-85
2021/09/03 08:42:41;;;;;;;15.55;8.38;;;23.20;99.90;;;25.43;56.77;101120.31;6162690;23;20017;-85
2021/09/03 08:45:11;;;;;;;18.30;9.00;;;23.30;99.90;;;25.51;55.99;101111.13;6163470;23;20001;-88
2021/09/03 08:47:39;;;;;;;10.43;7.75;;;23.40;99.90;;;25.57;56.12;101111.38;6144847;23;20029;-87
2021/09/03 08:50:10;;;;;;;10.75;7.78;;;23.40;99.90;;;25.55;55.28;101123.28;6140130;23;20071;-86
2021/09/03 08:52:47;;;;;;;9.70;7.50;;;23.60;99.90;;;25.97;55.12;101126.19;6137676;23;20016;-86
2021/09/03 08:55:15;;;;;;;15.13;8.25;;;23.70;99.90;;;26.13;53.47;101131.84;6136577;23;20005;-87
2021/09/03 08:57:43;;;;;;;11.65;6.97;;;23.90;99.90;;;26.08;54.15;101123.81;6136658;23;20013;-85
2021/09/03 09:00:30;;;;;;;17.48;7.85;;;23.80;99.90;;;26.22;53.64;101126.31;6136940;23;20383;-85
2021/09/03 09:03:05;;;;;;;14.30;8.68;;;23.90;99.90;;;26.45;52.82;101128.88;6136477;23;20009;-84
2021/09/03 09:05:55;;;;;;;13.02;8.02;;;24.20;99.90;;;26.55;52.07;101130.56;6135931;23;20037;-88
2021/09/03 09:08:26;;;;;;;12.98;8.63;;;24.40;99.90;;;26.76;51.58;101123.38;6160541;23;20005;-87
2021/09/03 09:11:18;;;;;;;12.32;8.18;;;24.60;99.90;;;26.95;52.15;101121.56;6136016;23;20081;-85
2021/09/03 09:13:46;;;;;;;14.52;7.57;;;24.70;99.90;;;27.12;51.57;101120.19;6135821;23;20006;-87
2021/09/03 09:16:19;;;;;;;12.32;8.35;;;25.00;99.90;;;27.35;51.16;101122.69;6136379;23;20006;-88
2021/09/03 09:18:55;;;;;;;10.40;8.32;;;25.10;99.90;;;27.54;52.15;101117.94;6161953;23;20082;-87
2021/09/03 09:21:35;;;;;;;11.90;7.57;;;25.30;99.90;;;27.41;49.82;101120.00;6136849;23;20013;-89
2021/09/03 09:24:13;;;;;;;10.70;7.78;;;25.30;99.90;;;27.38;51.27;101112.34;6136229;23;20013;-87
2021/09/03 09:26:51;;;;;;;10.73;7.97;;;25.30;99.90;;;27.82;50.47;101114.03;6136644;23;20013;-87
2021/09/03 09:29:37;;;;;;;13.10;7.43;;;25.50;99.90;;;28.12;49.17;101118.28;6135789;23;20049;-87
2021/09/03 09:32:10;;;;;;;10.70;7.80;;;25.60;99.90;;;28.17;49.03;101109.06;6161962;23;20001;-86
2021/09/03 09:34:44;;;;;;;10.30;7.32;;;25.70;99.90;;;28.15;48.89;101109.53;6137208;23;20016;-87
2021/09/03 09:37:17;;;;;;;10.40;7.90;;;25.80;99.90;;;27.97;48.66;101117.97;6136144;23;20092;-86
2021/09/03 09:39:56;;;;;;;9.90;8.13;;;25.60;99.90;;;27.88;48.50;101106.44;6136623;23;20069;-87
2021/09/03 09:42:32;;;;;;;10.57;8.35;;;25.60;99.90;;;27.46;49.09;101110.84;6161290;23;20021;-86
2021/09/03 09:45:14;;;;;;;12.23;7.65;;;25.40;99.70;;;27.61;50.42;101104.13;6135655;23;20439;-85
2021/09/03 09:47:43;;;;;;;10.73;7.05;;;25.40;99.90;;;27.77;50.24;101103.94;6161265;23;20009;-87
2021/09/03 09:50:42;;;;;;;12.13;7.95;;;25.40;99.90;;;27.96;48.82;101107.78;6163085;23;20065;-87
2021/09/03 09:53:14;;;;;;;9.57;6.97;;;25.50;99.90;;;27.91;48.23;101096.88;6088917;23;20005;-87
2021/09/03 09:55:41;;;;;;;10.68;6.00;;;25.50;99.40;;;27.92;47.86;101081.28;6161117;23;20423;-85
2021/09/03 09:58:08;;;;;;;11.93;6.68;;;25.50;98.70;;;28.30;47.50;101083.13;6162981;23;20352;-86
2021/09/03 10:00:35;;;;;;;9.43;6.38;;;25.70;98.60;;;28.48;46.90;101081.16;6137401;23;20499;-87